createdAt,value
2018-02-18T00:00:48.127Z,91.15
2018-02-18T00:01:48.166Z,91.53
2018-02-18T00:02:48.615Z,91.62
2018-02-18T00:03:48.281Z,92.00
2018-02-18T00:04:48.363Z,92.00
2018-02-18T00:05:48.414Z,92.00
2018-02-18T00:06:48.488Z,91.81
2018-02-18T00:07:48.557Z,92.00
2018-02-18T00:08:48.611Z,92.00
2018-02-18T00:09:48.671Z,91.15
2018-02-18T00:10:48.735Z,91.24
2018-02-18T00:11:48.929Z,91.34
2018-02-18T00:12:48.863Z,91.34
2018-02-18T00:13:48.957Z,91.34
2018-02-18T00:14:49.002Z,91.53
2018-02-18T00:15:49.054Z,91.15
2018-02-18T00:16:49.112Z,91.34
2018-02-18T00:17:49.192Z,91.15
2018-02-18T00:18:49.254Z,91.53
2018-02-18T00:19:49.315Z,91.53
2018-02-18T00:20:49.379Z,92.00
2018-02-18T00:21:49.449Z,91.72
2018-02-18T00:22:49.550Z,91.24
2018-02-18T00:23:49.569Z,91.81
2018-02-18T00:24:49.633Z,91.72
2018-02-18T00:25:49.718Z,91.72
2018-02-18T00:26:49.796Z,91.72
2018-02-18T00:27:49.849Z,91.81
2018-02-18T00:28:49.889Z,91.81
2018-02-18T00:29:49.957Z,91.81
2018-02-18T00:30:50.022Z,91.81
2018-02-18T00:31:50.077Z,91.43
2018-02-18T00:32:50.143Z,91.53
2018-02-18T00:33:50.223Z,91.72
2018-02-18T00:34:50.278Z,91.81
2018-02-18T00:35:50.332Z,91.72
2018-02-18T00:36:50.400Z,91.62
2018-02-18T00:37:50.471Z,91.72
2018-02-18T00:38:50.526Z,91.91
2018-02-18T00:39:50.591Z,91.91
2018-02-18T00:40:50.718Z,91.91
2018-02-18T00:41:50.731Z,91.15
2018-02-18T00:42:50.793Z,92.00
2018-02-18T00:43:50.883Z,92.00
2018-02-18T00:44:50.908Z,92.00
2018-02-18T00:45:50.979Z,91.62
2018-02-18T00:46:51.292Z,91.62
2018-02-18T00:47:51.156Z,91.15
2018-02-18T00:48:51.182Z,91.34
2018-02-18T00:49:51.253Z,91.34
2018-02-18T00:50:51.302Z,90.96
2018-02-18T00:51:51.369Z,91.34
2018-02-18T00:52:51.418Z,91.62
2018-02-18T00:53:51.489Z,91.62
2018-02-18T00:54:51.550Z,90.96
2018-02-18T00:55:51.607Z,91.62
2018-02-18T00:56:51.692Z,91.15
2018-02-18T00:57:51.740Z,92.00
2018-02-18T00:58:51.841Z,91.81
2018-02-18T00:59:51.873Z,91.91
2018-02-18T01:00:51.936Z,91.05
2018-02-18T01:01:52.000Z,91.72
2018-02-18T01:02:52.060Z,91.72
2018-02-18T01:03:52.123Z,91.72
2018-02-18T01:04:52.731Z,91.72
2018-02-18T01:05:52.279Z,92.00
2018-02-18T01:06:52.322Z,91.72
2018-02-18T01:07:52.376Z,91.62
2018-02-18T01:08:52.466Z,91.58
2018-02-18T01:09:52.516Z,91.58
2018-02-18T01:10:52.669Z,91.67
2018-02-18T01:11:52.656Z,91.53
2018-02-18T01:12:52.715Z,91.15
2018-02-18T01:13:52.775Z,91.34
2018-02-18T01:14:52.823Z,91.39
2018-02-18T01:15:52.899Z,91.39
2018-02-18T01:16:52.952Z,91.39
2018-02-18T01:17:53.025Z,91.34
2018-02-18T01:18:53.087Z,91.29
2018-02-18T01:19:53.147Z,91.24
2018-02-18T01:20:53.207Z,91.58
2018-02-18T01:21:53.274Z,91.29
2018-02-18T01:22:53.339Z,91.29
2018-02-18T01:23:53.403Z,91.39
2018-02-18T01:24:53.472Z,91.39
2018-02-18T01:25:53.533Z,91.20
2018-02-18T01:26:53.594Z,91.48
2018-02-18T01:27:53.653Z,91.39
2018-02-18T01:28:53.716Z,91.39
2018-02-18T01:29:53.783Z,91.20
2018-02-18T01:30:53.852Z,91.48
2018-02-18T01:31:53.908Z,91.10
2018-02-18T01:32:53.972Z,91.10
2018-02-18T01:33:54.042Z,90.91
2018-02-18T01:34:54.100Z,91.29
2018-02-18T01:35:54.162Z,91.29
2018-02-18T01:36:54.254Z,91.29
2018-02-18T01:37:54.291Z,91.29
2018-02-18T01:38:54.352Z,91.48
2018-02-18T01:39:54.417Z,91.29
2018-02-18T01:40:54.493Z,91.39
2018-02-18T01:41:54.551Z,91.29
2018-02-18T01:42:54.618Z,91.10
2018-02-18T01:43:54.674Z,90.91
2018-02-18T01:44:54.742Z,91.58
2018-02-18T01:45:54.798Z,91.67
2018-02-18T01:46:54.888Z,91.10
2018-02-18T01:47:54.929Z,91.01
2018-02-18T01:48:55.002Z,91.10
2018-02-18T01:49:55.071Z,91.39
2018-02-18T01:50:55.119Z,91.29
2018-02-18T01:51:55.177Z,91.39
2018-02-18T01:52:55.249Z,91.39
2018-02-18T01:53:55.315Z,91.29
2018-02-18T01:54:55.379Z,91.29
2018-02-18T01:55:55.440Z,91.29
2018-02-18T01:56:55.504Z,91.01
2018-02-18T01:57:55.566Z,91.10
2018-02-18T01:58:55.631Z,91.29
2018-02-18T01:59:55.690Z,91.39
2018-02-18T02:00:55.755Z,91.29
2018-02-18T02:01:55.820Z,91.29
2018-02-18T02:02:55.887Z,91.20
2018-02-18T02:03:55.945Z,91.29
2018-02-18T02:04:56.023Z,91.29
2018-02-18T02:05:56.064Z,91.20
2018-02-18T02:06:56.138Z,91.77
2018-02-18T02:07:56.198Z,91.58
2018-02-18T02:08:56.258Z,91.39
2018-02-18T02:09:56.320Z,91.39
2018-02-18T02:10:56.390Z,91.01
2018-02-18T02:11:56.447Z,91.58
2018-02-18T02:12:56.533Z,91.39
2018-02-18T02:13:56.577Z,91.48
2018-02-18T02:14:56.640Z,91.20
2018-02-18T02:15:56.710Z,91.20
2018-02-18T02:16:56.770Z,91.20
2018-02-18T02:17:56.839Z,91.39
2018-02-18T02:18:56.895Z,91.20
2018-02-18T02:19:56.964Z,91.20
2018-02-18T02:20:57.036Z,91.39
2018-02-18T02:21:57.098Z,91.20
2018-02-18T02:22:57.156Z,91.39
2018-02-18T02:23:57.214Z,91.58
2018-02-18T02:24:57.282Z,91.20
2018-02-18T02:25:57.348Z,91.29
2018-02-18T02:26:57.404Z,91.39
2018-02-18T02:27:57.468Z,91.39
2018-02-18T02:28:57.533Z,91.58
2018-02-18T02:29:57.600Z,91.58
2018-02-18T02:30:57.668Z,91.39
2018-02-18T02:31:57.754Z,91.58
2018-02-18T02:32:57.823Z,91.48
2018-02-18T02:33:57.857Z,91.58
2018-02-18T02:34:57.913Z,91.58
2018-02-18T02:35:57.978Z,91.20
2018-02-18T02:36:58.032Z,91.29
2018-02-18T02:37:58.105Z,91.20
2018-02-18T02:38:58.163Z,91.58
2018-02-18T02:39:58.238Z,91.58
2018-02-18T02:40:58.316Z,91.29
2018-02-18T02:41:58.360Z,91.29
2018-02-18T02:42:58.420Z,91.58
2018-02-18T02:43:58.485Z,91.20
2018-02-18T02:44:58.547Z,91.48
2018-02-18T02:45:58.630Z,91.20
2018-02-18T02:46:58.685Z,91.39
2018-02-18T02:47:58.736Z,91.29
2018-02-18T02:48:58.811Z,91.29
2018-02-18T02:49:58.862Z,91.29
2018-02-18T02:50:58.927Z,91.58
2018-02-18T02:51:58.993Z,91.58
2018-02-18T02:52:59.057Z,91.58
2018-02-18T02:53:59.116Z,91.48
2018-02-18T02:54:59.187Z,91.10
2018-02-18T02:55:59.255Z,91.20
2018-02-18T02:56:59.302Z,91.20
2018-02-18T02:57:59.384Z,91.20
2018-02-18T02:58:59.435Z,91.29
2018-02-18T02:59:59.499Z,91.39
2018-02-18T03:00:59.573Z,91.39
2018-02-18T03:01:59.622Z,91.29
2018-02-18T03:02:59.704Z,91.20
2018-02-18T03:03:59.746Z,91.48
2018-02-18T03:04:59.816Z,91.48
2018-02-18T03:05:59.892Z,91.67
2018-02-18T03:06:59.949Z,91.67
2018-02-18T03:08:00.025Z,91.58
2018-02-18T03:09:00.074Z,91.48
2018-02-18T03:10:00.139Z,91.39
2018-02-18T03:11:00.200Z,91.01
2018-02-18T03:12:00.264Z,91.48
2018-02-18T03:13:00.331Z,91.29
2018-02-18T03:14:00.382Z,91.48
2018-02-18T03:15:00.450Z,91.39
2018-02-18T03:16:00.509Z,91.20
2018-02-18T03:17:00.574Z,91.39
2018-02-18T03:18:00.642Z,91.48
2018-02-18T03:19:00.700Z,91.39
2018-02-18T03:20:00.771Z,91.48
2018-02-18T03:21:00.830Z,91.39
2018-02-18T03:22:00.894Z,91.29
2018-02-18T03:23:00.957Z,91.20
2018-02-18T03:24:01.024Z,91.20
2018-02-18T03:25:01.080Z,91.20
2018-02-18T03:26:01.144Z,91.10
2018-02-18T03:27:01.205Z,91.10
2018-02-18T03:28:01.296Z,91.10
2018-02-18T03:29:01.327Z,91.10
2018-02-18T03:30:01.418Z,90.82
2018-02-18T03:31:01.462Z,90.91
2018-02-18T03:32:01.514Z,91.29
2018-02-18T03:33:01.585Z,91.20
2018-02-18T03:34:01.658Z,91.29
2018-02-18T03:35:01.709Z,91.01
2018-02-18T03:36:01.789Z,91.29
2018-02-18T03:37:01.834Z,91.20
2018-02-18T03:38:01.901Z,91.01
2018-02-18T03:39:01.970Z,91.20
2018-02-18T03:40:02.025Z,91.01
2018-02-18T03:41:02.093Z,91.39
2018-02-18T03:42:02.165Z,91.48
2018-02-18T03:43:02.227Z,91.39
2018-02-18T03:44:02.289Z,91.20
2018-02-18T03:45:02.382Z,91.48
2018-02-18T03:46:02.411Z,91.39
2018-02-18T03:47:02.473Z,91.39
2018-02-18T03:48:02.541Z,91.10
2018-02-18T03:49:02.607Z,91.39
2018-02-18T03:50:02.662Z,91.48
2018-02-18T03:51:02.734Z,91.20
2018-02-18T03:52:02.787Z,91.29
2018-02-18T03:53:02.851Z,90.91
2018-02-18T03:54:02.913Z,90.82
2018-02-18T03:55:02.984Z,90.63
2018-02-18T03:56:03.048Z,91.29
2018-02-18T03:57:03.104Z,91.24
2018-02-18T03:58:03.169Z,91.15
2018-02-18T03:59:03.230Z,91.62
2018-02-18T04:00:03.300Z,91.34
2018-02-18T04:01:03.364Z,91.24
2018-02-18T04:02:03.425Z,91.43
2018-02-18T04:03:03.487Z,91.24
2018-02-18T04:04:03.543Z,91.62
2018-02-18T04:05:03.618Z,91.24
2018-02-18T04:06:03.676Z,91.62
2018-02-18T04:07:03.734Z,91.62
2018-02-18T04:08:03.803Z,91.72
2018-02-18T04:09:03.866Z,91.34
2018-02-18T04:10:03.937Z,91.15
2018-02-18T04:11:03.996Z,91.15
2018-02-18T04:12:04.052Z,91.72
2018-02-18T04:13:04.143Z,91.72
2018-02-18T04:14:04.187Z,91.91
2018-02-18T04:15:04.248Z,91.72
2018-02-18T04:16:04.303Z,91.62
2018-02-18T04:17:04.428Z,91.62
2018-02-18T04:18:04.440Z,91.62
2018-02-18T04:19:04.500Z,91.53
2018-02-18T04:20:04.570Z,91.72
2018-02-18T04:21:04.620Z,91.62
2018-02-18T04:22:04.694Z,91.62
2018-02-18T04:23:04.755Z,91.62
2018-02-18T04:24:04.825Z,91.24
2018-02-18T04:25:04.882Z,91.43
2018-02-18T04:26:04.952Z,91.53
2018-02-18T04:27:05.013Z,91.62
2018-02-18T04:28:05.079Z,92.00
2018-02-18T04:29:05.145Z,91.53
2018-02-18T04:30:05.214Z,91.53
2018-02-18T04:31:05.290Z,91.43
2018-02-18T04:32:05.336Z,91.53
2018-02-18T04:33:05.400Z,91.53
2018-02-18T04:34:05.457Z,91.34
2018-02-18T04:35:05.515Z,91.62
2018-02-18T04:36:05.578Z,91.81
2018-02-18T04:37:05.642Z,91.72
2018-02-18T04:38:05.718Z,91.91
2018-02-18T04:39:05.775Z,91.91
2018-02-18T04:40:05.838Z,91.81
2018-02-18T04:41:05.900Z,92.19
2018-02-18T04:42:05.968Z,91.91
2018-02-18T04:43:06.030Z,92.00
2018-02-18T04:44:06.118Z,91.81
2018-02-18T04:45:06.159Z,91.81
2018-02-18T04:46:06.223Z,91.91
2018-02-18T04:47:06.281Z,91.91
2018-02-18T04:48:06.355Z,92.19
2018-02-18T04:49:06.410Z,92.19
2018-02-18T04:50:06.474Z,92.00
2018-02-18T04:51:06.538Z,91.91
2018-02-18T04:52:06.602Z,91.81
2018-02-18T04:53:06.668Z,91.72
2018-02-18T04:54:06.748Z,91.81
2018-02-18T04:55:06.801Z,91.62
2018-02-18T04:56:06.859Z,91.53
2018-02-18T04:57:06.922Z,91.81
2018-02-18T04:58:06.985Z,91.62
2018-02-18T04:59:07.044Z,91.62
2018-02-18T05:00:07.118Z,91.53
2018-02-18T05:01:07.172Z,91.81
2018-02-18T05:02:07.246Z,92.00
2018-02-18T05:03:07.298Z,91.53
2018-02-18T05:04:07.372Z,91.53
2018-02-18T05:05:07.430Z,91.53
2018-02-18T05:06:07.496Z,92.00
2018-02-18T05:07:07.559Z,91.72
2018-02-18T05:08:07.614Z,91.72
2018-02-18T05:09:07.675Z,91.43
2018-02-18T05:10:07.744Z,91.62
2018-02-18T05:11:07.810Z,91.62
2018-02-18T05:12:07.878Z,91.43
2018-02-18T05:13:07.946Z,91.62
2018-02-18T05:14:08.001Z,91.72
2018-02-18T05:15:08.067Z,91.62
2018-02-18T05:16:08.125Z,91.53
2018-02-18T05:17:08.193Z,91.53
2018-02-18T05:18:08.257Z,91.53
2018-02-18T05:19:08.318Z,91.81
2018-02-18T05:20:08.384Z,91.81
2018-02-18T05:21:08.448Z,91.53
2018-02-18T05:22:08.515Z,91.53
2018-02-18T05:23:08.577Z,91.53
2018-02-18T05:24:08.634Z,91.72
2018-02-18T05:25:08.749Z,91.62
2018-02-18T05:26:08.767Z,91.62
2018-02-18T05:27:08.842Z,91.62
2018-02-18T05:28:08.888Z,91.43
2018-02-18T05:29:08.960Z,91.62
2018-02-18T05:30:09.019Z,91.53
2018-02-18T05:31:09.081Z,91.62
2018-02-18T05:32:09.180Z,91.72
2018-02-18T05:33:09.205Z,91.43
2018-02-18T05:34:09.300Z,91.62
2018-02-18T05:35:09.334Z,91.62
2018-02-18T05:36:09.402Z,91.72
2018-02-18T05:37:09.473Z,91.62
2018-02-18T05:38:09.526Z,91.62
2018-02-18T05:39:09.606Z,91.62
2018-02-18T05:40:09.662Z,91.53
2018-02-18T05:41:09.713Z,91.62
2018-02-18T05:42:09.786Z,91.43
2018-02-18T05:43:09.850Z,91.62
2018-02-18T05:44:09.922Z,91.43
2018-02-18T05:45:09.981Z,91.43
2018-02-18T05:46:10.064Z,91.34
2018-02-18T05:47:10.100Z,91.53
2018-02-18T05:48:10.192Z,91.62
2018-02-18T05:49:10.234Z,91.53
2018-02-18T05:50:10.298Z,91.53
2018-02-18T05:51:10.353Z,91.43
2018-02-18T05:52:10.471Z,91.24
2018-02-18T05:53:10.480Z,91.43
2018-02-18T05:54:10.550Z,91.43
2018-02-18T05:55:10.610Z,91.43
2018-02-18T05:56:10.668Z,91.43
2018-02-18T05:57:10.750Z,91.34
2018-02-18T05:58:10.805Z,91.24
2018-02-18T05:59:10.874Z,91.24
2018-02-18T06:00:10.923Z,91.34
2018-02-18T06:01:10.993Z,91.34
2018-02-18T06:02:11.062Z,91.43
2018-02-18T06:03:11.116Z,91.72
2018-02-18T06:04:11.179Z,91.43
2018-02-18T06:05:11.245Z,91.53
2018-02-18T06:06:11.342Z,91.53
2018-02-18T06:07:11.376Z,91.43
2018-02-18T06:08:11.435Z,91.62
2018-02-18T06:09:11.504Z,91.53
2018-02-18T06:10:11.571Z,91.53
2018-02-18T06:11:11.631Z,91.53
2018-02-18T06:12:11.704Z,91.62
2018-02-18T06:13:11.755Z,91.43
2018-02-18T06:14:11.826Z,91.81
2018-02-18T06:15:11.899Z,92.00
2018-02-18T06:16:11.946Z,92.00
2018-02-18T06:17:12.019Z,92.00
2018-02-18T06:18:12.074Z,91.91
2018-02-18T06:19:12.145Z,91.43
2018-02-18T06:20:12.201Z,91.81
2018-02-18T06:21:12.270Z,91.81
2018-02-18T06:22:12.326Z,91.53
2018-02-18T06:23:12.397Z,91.81
2018-02-18T06:24:12.455Z,92.00
2018-02-18T06:25:12.519Z,92.00
2018-02-18T06:26:12.587Z,91.53
2018-02-18T06:27:12.649Z,91.81
2018-02-18T06:28:12.702Z,91.81
2018-02-18T06:29:12.767Z,91.81
2018-02-18T06:30:12.838Z,92.19
2018-02-18T06:31:12.907Z,91.81
2018-02-18T06:32:12.962Z,92.00
2018-02-18T06:33:13.053Z,91.91
2018-02-18T06:34:13.092Z,91.53
2018-02-18T06:35:13.162Z,92.00
2018-02-18T06:36:13.218Z,91.34
2018-02-18T06:37:13.290Z,91.53
2018-02-18T06:38:13.345Z,91.53
2018-02-18T06:39:13.413Z,91.57
2018-02-18T06:40:13.479Z,91.38
2018-02-18T06:41:13.545Z,91.57
2018-02-18T06:42:13.604Z,91.48
2018-02-18T06:43:13.663Z,91.57
2018-02-18T06:44:13.722Z,91.67
2018-02-18T06:45:13.803Z,91.67
2018-02-18T06:46:13.870Z,91.76
2018-02-18T06:47:13.917Z,91.48
2018-02-18T06:48:13.990Z,91.57
2018-02-18T06:49:14.049Z,91.48
2018-02-18T06:50:14.113Z,91.48
2018-02-18T06:51:14.190Z,91.57
2018-02-18T06:52:14.247Z,91.76
2018-02-18T06:53:14.297Z,91.57
2018-02-18T06:54:14.371Z,91.67
2018-02-18T06:55:14.440Z,91.86
2018-02-18T06:56:14.495Z,91.95
2018-02-18T06:57:14.554Z,91.57
2018-02-18T06:58:14.627Z,91.19
2018-02-18T06:59:14.689Z,91.48
2018-02-18T07:00:14.747Z,91.38
2018-02-18T07:01:14.817Z,91.19
2018-02-18T07:02:14.950Z,91.10
2018-02-18T07:03:14.935Z,91.00
2018-02-18T07:04:15.011Z,90.91
2018-02-18T07:05:15.069Z,91.10
2018-02-18T07:06:15.135Z,90.67
2018-02-18T07:07:15.206Z,91.24
2018-02-18T07:08:15.262Z,90.77
2018-02-18T07:09:15.327Z,90.86
2018-02-18T07:10:15.388Z,90.86
2018-02-18T07:11:15.453Z,91.05
2018-02-18T07:12:15.548Z,90.77
2018-02-18T07:13:15.582Z,90.86
2018-02-18T07:14:15.641Z,90.95
2018-02-18T07:15:15.708Z,90.58
2018-02-18T07:16:15.776Z,90.39
2018-02-18T07:17:15.841Z,90.58
2018-02-18T07:18:15.897Z,90.48
2018-02-18T07:19:15.969Z,90.39
2018-02-18T07:20:16.031Z,90.39
2018-02-18T07:21:16.098Z,90.10
2018-02-18T07:22:16.161Z,90.15
2018-02-18T07:23:16.233Z,89.96
2018-02-18T07:24:16.281Z,90.43
2018-02-18T07:25:16.361Z,89.77
2018-02-18T07:26:16.429Z,89.86
2018-02-18T07:27:16.482Z,89.96
2018-02-18T07:28:16.548Z,89.48
2018-02-18T07:29:16.616Z,89.77
2018-02-18T07:30:16.674Z,89.39
2018-02-18T07:31:16.739Z,89.58
2018-02-18T07:32:16.807Z,89.25
2018-02-18T07:33:16.870Z,89.25
2018-02-18T07:34:16.930Z,88.91
2018-02-18T07:35:16.998Z,86.19
2018-02-18T07:36:17.058Z,82.23
2018-02-18T07:37:17.137Z,78.50
2018-02-18T07:38:17.203Z,76.04
2018-02-18T07:39:17.271Z,73.25
2018-02-18T07:40:17.326Z,71.32
2018-02-18T07:41:17.390Z,70.34
2018-02-18T07:42:17.463Z,69.42
2018-02-18T07:43:17.549Z,68.33
2018-02-18T07:44:17.598Z,67.00
2018-02-18T07:45:17.665Z,66.16
2018-02-18T07:46:17.727Z,64.89
2018-02-18T07:47:17.837Z,64.08
2018-02-18T07:48:17.892Z,63.54
2018-02-18T07:49:17.952Z,62.54
2018-02-18T07:50:18.070Z,62.28
2018-02-18T07:51:18.089Z,61.44
2018-02-18T07:52:18.169Z,61.12
2018-02-18T07:53:18.221Z,60.79
2018-02-18T07:54:18.292Z,59.66
2018-02-18T07:55:18.371Z,58.92
2018-02-18T07:56:18.454Z,57.59
2018-02-18T07:57:18.549Z,56.85
2018-02-18T07:58:18.595Z,56.77
2018-02-18T07:59:18.685Z,56.32
2018-02-18T08:00:18.752Z,55.96
2018-02-18T08:01:18.819Z,55.89
2018-02-18T08:02:18.896Z,54.75
2018-02-18T08:03:19.009Z,54.78
2018-02-18T08:04:19.094Z,54.61
2018-02-18T08:05:20.232Z,54.76
2018-02-18T08:06:19.251Z,53.33
2018-02-18T08:07:19.294Z,53.36
2018-02-18T08:08:19.351Z,53.21
2018-02-18T08:09:19.444Z,52.75
2018-02-18T08:10:19.561Z,52.12
2018-02-18T08:11:19.575Z,52.15
2018-02-18T08:12:19.664Z,51.68
2018-02-18T08:13:19.741Z,51.20
2018-02-18T08:14:19.821Z,50.22
2018-02-18T08:15:19.899Z,50.05
2018-02-18T08:16:19.985Z,49.68
2018-02-18T08:17:20.059Z,49.82
2018-02-18T08:18:20.133Z,50.44
2018-02-18T08:19:20.213Z,50.09
2018-02-18T08:20:20.290Z,50.04
2018-02-18T08:21:20.374Z,49.58
2018-02-18T08:22:20.462Z,49.36
2018-02-18T08:23:20.535Z,50.46
2018-02-18T08:24:20.617Z,52.86
2018-02-18T08:25:20.689Z,53.39
2018-02-18T08:26:21.030Z,53.74
2018-02-18T08:27:20.869Z,55.08
2018-02-18T08:28:21.035Z,55.90
2018-02-18T08:29:21.056Z,56.62
2018-02-18T08:30:21.098Z,57.54
2018-02-18T08:31:21.180Z,58.32
2018-02-18T08:32:21.255Z,59.33
2018-02-18T08:33:21.371Z,59.14
2018-02-18T08:34:21.414Z,58.29
2018-02-18T08:35:21.499Z,57.47
2018-02-18T08:36:21.584Z,55.80
2018-02-18T08:37:21.658Z,53.81
2018-02-18T08:38:21.734Z,52.69
2018-02-18T08:39:21.822Z,53.00
2018-02-18T08:40:21.927Z,52.51
2018-02-18T08:41:21.979Z,51.73
2018-02-18T08:42:22.067Z,51.44
2018-02-18T08:43:22.128Z,51.51
2018-02-18T08:44:22.237Z,52.78
2018-02-18T08:45:22.328Z,55.08
2018-02-18T08:46:22.377Z,57.79
2018-02-18T08:47:22.458Z,59.09
2018-02-18T08:48:22.542Z,58.57
2018-02-18T08:49:22.609Z,56.46
2018-02-18T08:50:22.696Z,54.57
2018-02-18T08:51:22.781Z,54.54
2018-02-18T08:52:22.859Z,55.68
2018-02-18T08:53:22.927Z,55.08
2018-02-18T08:54:23.009Z,52.67
2018-02-18T08:55:23.092Z,52.38
2018-02-18T08:56:23.181Z,53.89
2018-02-18T08:57:23.256Z,56.21
2018-02-18T08:58:23.332Z,59.97
2018-02-18T08:59:23.423Z,62.79
2018-02-18T09:00:23.486Z,63.89
2018-02-18T09:01:23.684Z,65.72
2018-02-18T09:02:24.574Z,68.13
2018-02-18T09:03:24.571Z,69.29
2018-02-18T09:04:23.803Z,68.45
2018-02-18T09:05:24.108Z,66.97
2018-02-18T09:06:23.945Z,65.72
2018-02-18T09:07:24.037Z,65.59
2018-02-18T09:08:24.116Z,64.79
2018-02-18T09:09:24.180Z,62.99
2018-02-18T09:10:24.263Z,62.70
2018-02-18T09:11:24.409Z,64.40
2018-02-18T09:12:24.470Z,63.76
2018-02-18T09:13:24.484Z,62.12
2018-02-18T09:14:24.564Z,59.01
2018-02-18T09:15:24.635Z,57.53
2018-02-18T09:16:24.715Z,56.75
2018-02-18T09:17:24.798Z,58.40
2018-02-18T09:18:24.863Z,61.80
2018-02-18T09:19:24.945Z,63.79
2018-02-18T09:20:25.017Z,64.82
2018-02-18T09:21:25.094Z,66.33
2018-02-18T09:22:25.170Z,67.00
2018-02-18T09:23:25.255Z,66.59
2018-02-18T09:24:25.320Z,67.23
2018-02-18T09:25:25.408Z,65.95
2018-02-18T09:26:25.538Z,64.79
2018-02-18T09:27:25.549Z,64.95
2018-02-18T09:28:25.624Z,65.50
2018-02-18T09:29:25.697Z,66.42
2018-02-18T09:30:25.779Z,65.85
2018-02-18T09:31:25.850Z,64.73
2018-02-18T09:32:25.955Z,63.50
2018-02-18T09:33:26.006Z,62.76
2018-02-18T09:34:26.089Z,61.86
2018-02-18T09:35:26.161Z,59.60
2018-02-18T09:36:26.233Z,57.73
2018-02-18T09:37:26.305Z,57.89
2018-02-18T09:38:26.385Z,59.60
2018-02-18T09:39:26.458Z,59.80
2018-02-18T09:40:26.525Z,59.80
2018-02-18T09:41:26.612Z,61.28
2018-02-18T09:42:26.686Z,63.60
2018-02-18T09:43:26.756Z,65.69
2018-02-18T09:44:26.845Z,66.20
2018-02-18T09:45:26.912Z,65.91
2018-02-18T09:46:26.979Z,65.81
2018-02-18T09:47:27.073Z,66.17
2018-02-18T09:48:27.131Z,67.03
2018-02-18T09:49:27.211Z,66.97
2018-02-18T09:50:27.290Z,67.16
2018-02-18T09:51:27.423Z,67.51
2018-02-18T09:52:27.448Z,67.86
2018-02-18T09:53:27.510Z,68.15
2018-02-18T09:54:27.594Z,68.13
2018-02-18T09:55:27.655Z,65.20
2018-02-18T09:56:27.737Z,64.15
2018-02-18T09:57:27.844Z,64.18
2018-02-18T09:58:27.887Z,64.40
2018-02-18T09:59:27.959Z,63.31
2018-02-18T10:00:28.025Z,61.18
2018-02-18T10:01:28.103Z,59.69
2018-02-18T10:02:28.183Z,58.72
2018-02-18T10:03:28.270Z,58.47
2018-02-18T10:04:28.339Z,57.00
2018-02-18T10:05:28.413Z,56.09
2018-02-18T10:06:28.491Z,54.61
2018-02-18T10:07:28.558Z,52.12
2018-02-18T10:08:28.624Z,49.16
2018-02-18T10:09:28.716Z,46.89
2018-02-18T10:10:28.787Z,46.47
2018-02-18T10:11:28.862Z,45.03
2018-02-18T10:12:33.563Z,43.44
2018-02-18T10:13:29.023Z,42.02
2018-02-18T10:14:29.101Z,41.87
2018-02-18T10:15:29.189Z,41.73
2018-02-18T10:16:29.263Z,40.78
2018-02-18T10:17:29.341Z,40.72
2018-02-18T10:18:29.427Z,39.98
2018-02-18T10:19:29.509Z,39.95
2018-02-18T10:20:29.586Z,39.40
2018-02-18T10:21:29.679Z,39.26
2018-02-18T10:22:29.754Z,38.92
2018-02-18T10:23:29.838Z,38.96
2018-02-18T10:24:29.927Z,38.68
2018-02-18T10:25:30.000Z,38.71
2018-02-18T10:26:30.096Z,38.73
2018-02-18T10:27:30.172Z,38.77
2018-02-18T10:28:30.253Z,38.62
2018-02-18T10:29:30.338Z,38.46
2018-02-18T10:30:30.427Z,38.48
2018-02-18T10:31:30.519Z,38.38
2018-02-18T10:32:30.608Z,38.28
2018-02-18T10:33:30.688Z,38.06
2018-02-18T10:34:30.789Z,38.16
2018-02-18T10:35:30.857Z,38.02
2018-02-18T10:36:30.964Z,38.20
2018-02-18T10:37:31.033Z,37.79
2018-02-18T10:38:31.299Z,37.66
2018-02-18T10:39:31.206Z,37.45
2018-02-18T10:40:31.280Z,37.23
2018-02-18T10:41:31.378Z,36.91
2018-02-18T10:42:31.469Z,36.81
2018-02-18T10:43:31.548Z,36.73
2018-02-18T10:44:31.655Z,37.03
2018-02-18T10:45:31.731Z,36.76
2018-02-18T10:46:31.807Z,36.07
2018-02-18T10:47:31.904Z,36.36
2018-02-18T10:48:31.976Z,35.64
2018-02-18T10:49:32.360Z,35.49
2018-02-18T10:50:32.155Z,36.16
2018-02-18T10:51:32.244Z,36.63
2018-02-18T10:52:32.330Z,37.59
2018-02-18T10:53:32.403Z,37.95
2018-02-18T10:54:32.499Z,38.29
2018-02-18T10:55:32.588Z,38.54
2018-02-18T10:56:32.677Z,38.52
2018-02-18T10:57:32.765Z,39.29
2018-02-18T10:58:32.967Z,40.17
2018-02-18T10:59:32.928Z,41.33
2018-02-18T11:00:33.015Z,42.29
2018-02-18T11:01:33.089Z,41.36
2018-02-18T11:02:33.173Z,39.61
2018-02-18T11:03:33.257Z,39.81
2018-02-18T11:04:33.466Z,39.45
2018-02-18T11:05:33.427Z,38.21
2018-02-18T11:06:33.515Z,37.65
2018-02-18T11:07:33.601Z,36.69
2018-02-18T11:08:33.686Z,36.71
2018-02-18T11:09:33.854Z,36.44
2018-02-18T11:10:33.861Z,36.64
2018-02-18T11:11:33.952Z,36.26
2018-02-18T11:12:34.062Z,36.16
2018-02-18T11:13:34.120Z,36.29
2018-02-18T11:14:34.237Z,36.23
2018-02-18T11:15:34.288Z,36.26
2018-02-18T11:16:34.378Z,35.68
2018-02-18T11:17:34.446Z,36.10
2018-02-18T11:18:34.539Z,36.02
2018-02-18T11:19:34.624Z,35.82
2018-02-18T11:20:34.747Z,36.57
2018-02-18T11:21:34.795Z,37.53
2018-02-18T11:22:34.886Z,37.49
2018-02-18T11:23:34.976Z,37.48
2018-02-18T11:24:35.044Z,37.66
2018-02-18T11:25:35.181Z,37.46
2018-02-18T11:26:35.229Z,37.59
2018-02-18T11:27:35.311Z,36.75
2018-02-18T11:28:35.409Z,36.48
2018-02-18T11:29:35.486Z,36.18
2018-02-18T11:30:35.569Z,36.30
2018-02-18T11:31:35.667Z,36.32
2018-02-18T11:32:35.767Z,36.23
2018-02-18T11:33:35.825Z,36.45
2018-02-18T11:34:35.911Z,36.36
2018-02-18T11:35:36.029Z,36.57
2018-02-18T11:36:36.091Z,35.86
2018-02-18T11:37:36.193Z,36.55
2018-02-18T11:38:36.290Z,36.32
2018-02-18T11:39:36.343Z,37.05
2018-02-18T11:40:36.440Z,37.70
2018-02-18T11:41:36.518Z,37.48
2018-02-18T11:42:36.606Z,37.46
2018-02-18T11:43:36.701Z,36.94
2018-02-18T11:44:36.831Z,36.82
2018-02-18T11:45:36.878Z,36.44
2018-02-18T11:46:36.948Z,36.13
2018-02-18T11:47:37.041Z,36.22
2018-02-18T11:48:37.123Z,36.21
2018-02-18T11:49:37.204Z,36.52
2018-02-18T11:50:37.296Z,36.64
2018-02-18T11:51:37.387Z,36.43
2018-02-18T11:52:37.468Z,36.63
2018-02-18T11:53:37.557Z,36.22
2018-02-18T11:54:37.645Z,36.61
2018-02-18T11:55:37.724Z,36.41
2018-02-18T11:56:37.812Z,36.39
2018-02-18T11:57:37.926Z,36.27
2018-02-18T11:58:37.976Z,36.57
2018-02-18T11:59:38.062Z,37.83
2018-02-18T12:00:38.154Z,39.53
2018-02-18T12:01:38.226Z,41.04
2018-02-18T12:02:38.362Z,43.35
2018-02-18T12:03:38.403Z,43.10
2018-02-18T12:04:38.492Z,42.88
2018-02-18T12:05:38.598Z,42.58
2018-02-18T12:06:38.671Z,42.03
2018-02-18T12:07:38.741Z,40.78
2018-02-18T12:08:38.834Z,39.63
2018-02-18T12:09:38.907Z,39.23
2018-02-18T12:10:39.049Z,39.15
2018-02-18T12:11:39.095Z,38.70
2018-02-18T12:12:39.176Z,38.93
2018-02-18T12:13:39.292Z,38.93
2018-02-18T12:14:39.323Z,39.00
2018-02-18T12:15:39.416Z,39.29
2018-02-18T12:16:39.493Z,39.39
2018-02-18T12:17:39.589Z,39.39
2018-02-18T12:18:39.703Z,39.19
2018-02-18T12:19:39.782Z,39.09
2018-02-18T12:20:39.830Z,39.17
2018-02-18T12:21:39.931Z,39.17
2018-02-18T12:22:40.019Z,39.07
2018-02-18T12:23:40.090Z,39.28
2018-02-18T12:24:40.163Z,38.90
2018-02-18T12:25:40.245Z,38.60
2018-02-18T12:26:40.345Z,38.48
2018-02-18T12:27:40.466Z,39.06
2018-02-18T12:28:40.554Z,39.14
2018-02-18T12:29:40.617Z,39.34
2018-02-18T12:30:40.857Z,39.53
2018-02-18T12:31:40.933Z,39.53
2018-02-18T12:32:40.843Z,39.45
2018-02-18T12:33:40.915Z,39.47
2018-02-18T12:34:41.004Z,39.31
2018-02-18T12:35:41.087Z,39.13
2018-02-18T12:36:41.164Z,39.15
2018-02-18T12:37:41.273Z,39.15
2018-02-18T12:38:41.510Z,39.54
2018-02-18T12:39:41.425Z,40.22
2018-02-18T12:40:41.495Z,40.41
2018-02-18T12:41:41.579Z,40.78
2018-02-18T12:42:41.677Z,40.82
2018-02-18T12:43:41.752Z,41.30
2018-02-18T12:44:41.830Z,41.08
2018-02-18T12:45:41.967Z,40.88
2018-02-18T12:46:42.004Z,41.38
2018-02-18T12:47:42.087Z,41.24
2018-02-18T12:48:42.200Z,41.22
2018-02-18T12:49:42.276Z,42.38
2018-02-18T12:50:42.368Z,42.56
2018-02-18T12:51:42.437Z,41.87
2018-02-18T12:52:42.501Z,41.87
2018-02-18T12:53:42.620Z,42.05